Main page
METAR-TAF:

METAR-TAF

Airports :

Tehran, Iran

Mehrabad International Airport

latitude: 35-41N, longitude: 051-21E, elevation: 1204 m

Current weather observation

The report was made 39 minutes ago, at 20:00 UTC
Wind 14 kt from the West
Temperature 21°C
Humidity 43%
Pressure 1012 hPa
Visibility 10 km or more
no clouds below 1500 m and no cumulonimbus

METAR: OIII 232000Z 28014KT CAVOK 21/08 Q1011 A2988 NOSIG NOSIG

Time: 01:09 (20:39 UTC)

Forecast

The report was made 3 hours and 9 minutes ago, at 17:30 UTC
Forecast valid from 23 at 18 UTC to 24 at 24 UTC
Wind 10 kt from the Northwest
Visibility 10 km or more
no clouds below 1500 m and no cumulonimbus
Temporary
from 23 at 18 UTC to 24 at 03 UTC
Wind 19 kt from the West
Becoming
from 24 at 03 UTC to 24 at 05 UTC
Wind 10 kt from the Southeast

TAF: OIII 231730Z 2318/2424 32005MPS CAVOK TEMPO 2318/2403 28010MPS BECMG 2403/2405 14005MPS

Weather observations and forecasts of more than 4000 airports (METAR and TAF reports).

The available stations are represented by yellow and red dots on the map.

Hover mouse over dot to see the name of the station.

Then click to see weather observations and forecasts.

To change the map : click on the green buttons with a black cross to zoom in, on the green button with a dash to zoom out, or on the green arrows for adjacent maps.


METAR-TAF: